createdAt,value
2022-10-11T04:00:33.963Z,1.90
2022-10-11T04:05:33.899Z,5.40
2022-10-11T04:10:33.840Z,4.70
2022-10-11T04:15:40.840Z,6.00
2022-10-11T04:20:33.726Z,5.10
2022-10-11T04:25:33.677Z,5.40
2022-10-11T04:30:33.623Z,5.20
2022-10-11T04:35:33.588Z,5.60
2022-10-11T04:40:33.515Z,5.70
2022-10-11T04:45:33.463Z,5.50
2022-10-11T04:50:33.404Z,5.70
2022-10-11T04:55:33.377Z,5.90
2022-10-11T05:00:33.295Z,6.00
2022-10-11T05:05:33.244Z,5.60
2022-10-11T05:10:33.192Z,5.80
2022-10-11T05:15:33.155Z,5.30
2022-10-11T05:20:33.085Z,6.50
2022-10-11T05:25:33.105Z,6.40
2022-10-11T05:30:32.977Z,6.80
2022-10-11T05:35:32.943Z,6.30
2022-10-11T05:40:32.871Z,5.50
2022-10-11T05:45:32.812Z,5.80
2022-10-11T05:50:32.759Z,5.70
2022-10-11T05:55:32.729Z,5.90
2022-10-11T06:00:32.651Z,6.30
2022-10-11T06:05:32.597Z,5.70
2022-10-11T06:10:32.546Z,6.10
2022-10-11T06:15:32.652Z,8.50
2022-10-11T06:20:32.437Z,5.70
2022-10-11T06:25:32.381Z,5.30
2022-10-11T06:30:32.328Z,5.80
2022-10-11T06:35:32.297Z,5.70
2022-10-11T06:40:32.223Z,5.80
2022-10-11T06:45:32.176Z,6.40
2022-10-11T06:50:57.842Z,5.20
2022-10-11T06:55:33.119Z,4.90
2022-10-11T07:00:32.011Z,4.60
2022-10-11T07:05:31.954Z,5.30
2022-10-11T07:10:31.901Z,5.10
2022-10-11T07:15:31.871Z,5.40
2022-10-11T07:20:31.796Z,5.70
2022-10-11T07:25:31.743Z,4.90
2022-10-11T07:30:31.687Z,5.60
2022-10-11T07:35:31.653Z,5.50
2022-10-11T07:40:31.579Z,6.40
2022-10-11T07:45:31.546Z,6.30
2022-10-11T07:50:31.471Z,6.40
2022-10-11T07:55:31.442Z,6.30
2022-10-11T08:00:31.361Z,6.50
2022-10-11T08:05:31.319Z,6.40
2022-10-11T08:10:31.261Z,5.80
2022-10-11T08:15:31.221Z,6.30
2022-10-11T08:20:31.149Z,5.70
2022-10-11T08:25:31.090Z,6.40
2022-10-11T08:30:31.102Z,6.30
2022-10-11T08:35:31.015Z,7.00
2022-10-11T08:40:35.142Z,8.30
2022-10-11T08:45:30.870Z,9.10
2022-10-11T08:50:30.824Z,9.90
2022-10-11T08:55:30.781Z,10.30
2022-10-11T09:00:30.710Z,10.90
2022-10-11T09:05:30.650Z,11.70
2022-10-11T09:10:30.601Z,11.60
2022-10-11T09:15:30.562Z,12.00
2022-10-11T09:20:30.498Z,11.80
2022-10-11T09:25:30.435Z,12.10
2022-10-11T09:30:30.403Z,12.30
2022-10-11T09:35:30.389Z,13.10
2022-10-11T09:40:30.274Z,13.40
2022-10-11T09:45:30.215Z,13.40
2022-10-11T09:50:30.164Z,14.00
2022-10-11T09:55:30.126Z,13.50
2022-10-11T10:00:30.052Z,13.30
2022-10-11T10:05:30.004Z,14.30
2022-10-11T10:10:29.946Z,13.40
2022-10-11T10:15:29.908Z,13.30
2022-10-11T10:20:36.868Z,13.60
2022-10-11T10:25:29.818Z,14.00
2022-10-11T10:30:34.511Z,13.60
2022-10-11T10:35:30.699Z,13.50
2022-10-11T10:40:29.613Z,13.90
2022-10-11T10:45:29.559Z,15.30
2022-10-11T10:50:29.505Z,13.80
2022-10-11T10:55:29.476Z,14.20
2022-10-11T11:00:29.409Z,13.50
2022-10-11T11:05:29.346Z,15.90
2022-10-11T11:10:29.285Z,14.50
2022-10-11T11:15:32.658Z,14.10
2022-10-11T11:20:30.231Z,15.80
2022-10-11T11:25:29.130Z,14.50
2022-10-11T11:30:29.129Z,14.00
2022-10-11T11:35:29.042Z,13.50
2022-10-11T11:40:28.958Z,14.00
2022-10-11T11:45:28.910Z,10.50
2022-10-11T11:50:30.499Z,10.20
2022-10-11T11:55:28.807Z,9.70
2022-10-11T12:00:28.744Z,8.60
2022-10-11T12:05:28.702Z,8.90
2022-10-11T12:10:28.636Z,8.00
2022-10-11T12:15:28.607Z,8.80
2022-10-11T12:20:28.521Z,8.10
2022-10-11T12:25:28.474Z,6.70
2022-10-11T12:30:28.419Z,6.10
2022-10-11T12:35:28.389Z,6.20
2022-10-11T12:40:28.315Z,4.40
2022-10-11T12:45:28.254Z,4.20
2022-10-11T12:50:28.202Z,5.20
2022-10-11T12:55:28.168Z,5.10
2022-10-11T13:00:28.117Z,5.10
2022-10-11T13:05:28.040Z,6.60
2022-10-11T13:10:27.987Z,6.80
2022-10-11T13:15:27.947Z,5.20
2022-10-11T13:20:27.877Z,4.60
2022-10-11T13:25:27.872Z,5.00
2022-10-11T13:30:27.768Z,5.30
2022-10-11T13:35:27.949Z,4.50
2022-10-11T13:40:27.662Z,5.10
2022-10-11T13:45:27.598Z,5.00
2022-10-11T13:50:27.549Z,4.30
2022-10-11T13:55:27.507Z,4.60
2022-10-11T14:00:27.442Z,4.30
2022-10-11T14:05:27.385Z,4.40
2022-10-11T14:10:27.345Z,4.80
2022-10-11T14:15:27.344Z,4.50
2022-10-11T14:20:32.258Z,4.50
2022-10-11T14:25:28.166Z,4.00
2022-10-11T14:30:27.900Z,4.30
2022-10-11T14:35:27.074Z,4.00
2022-10-11T14:40:27.064Z,3.40
2022-10-11T14:45:26.980Z,3.20
2022-10-11T14:50:26.907Z,2.90
2022-10-11T14:55:26.871Z,3.40
2022-10-11T15:00:26.791Z,3.10
2022-10-11T15:05:31.140Z,3.40
2022-10-11T15:10:27.683Z,3.70
2022-10-11T15:15:26.648Z,3.10
2022-10-11T15:20:26.598Z,3.10
2022-10-11T15:25:26.523Z,3.90
2022-10-11T15:30:26.465Z,3.30
2022-10-11T15:35:26.429Z,5.00
2022-10-11T15:40:26.353Z,3.10
2022-10-11T15:45:26.337Z,3.20
2022-10-11T15:50:26.251Z,3.80
2022-10-11T15:55:26.196Z,2.90
2022-10-11T16:00:26.132Z,3.70
2022-10-11T16:05:26.075Z,2.30
2022-10-11T16:10:26.009Z,2.20
2022-10-11T16:15:25.995Z,2.30
2022-10-11T16:20:32.950Z,2.10
2022-10-11T16:25:25.843Z,2.70
2022-10-11T16:30:25.805Z,2.70
2022-10-11T16:35:30.148Z,3.10
2022-10-11T16:40:26.710Z,2.90
2022-10-11T16:45:25.629Z,4.00
2022-10-11T16:50:25.665Z,3.70
2022-10-11T16:55:25.563Z,3.90
2022-10-11T17:00:25.513Z,3.50
2022-10-11T17:05:25.423Z,3.20
2022-10-11T17:10:25.375Z,2.60
2022-10-11T17:15:25.340Z,2.70
2022-10-11T17:20:25.268Z,3.00
2022-10-11T17:25:25.228Z,3.30
2022-10-11T17:30:25.148Z,3.00
2022-10-11T17:35:25.122Z,3.10
2022-10-11T17:40:25.052Z,3.20
2022-10-11T17:45:25.011Z,3.70
2022-10-11T17:50:24.933Z,3.20
2022-10-11T17:55:24.913Z,3.80
2022-10-11T18:00:25.049Z,4.00
2022-10-11T18:05:24.779Z,4.10
2022-10-11T18:10:24.735Z,4.50
2022-10-11T18:15:24.772Z,4.50
2022-10-11T18:20:24.618Z,5.00
2022-10-11T18:25:24.585Z,5.10
2022-10-11T18:30:24.537Z,4.90
2022-10-11T18:35:24.478Z,4.30
2022-10-11T18:40:24.417Z,4.80
2022-10-11T18:45:24.376Z,5.00
2022-10-11T18:50:24.301Z,5.50
2022-10-11T18:55:24.282Z,5.20
2022-10-11T19:00:40.158Z,4.50
2022-10-11T19:05:25.155Z,4.80
2022-10-11T19:10:24.083Z,4.80
2022-10-11T19:15:28.524Z,4.50
2022-10-11T19:20:23.987Z,4.30
2022-10-11T19:25:23.921Z,4.50
2022-10-11T19:30:23.884Z,3.80
2022-10-11T19:35:23.870Z,4.50
2022-10-11T19:40:23.762Z,4.10
2022-10-11T19:45:23.719Z,4.70
2022-10-11T19:50:23.692Z,4.30
2022-10-11T19:55:23.692Z,4.30
2022-10-11T20:00:23.553Z,4.30
2022-10-11T20:05:23.507Z,4.10
2022-10-11T20:10:23.450Z,4.50
2022-10-11T20:15:23.417Z,4.30
2022-10-11T20:20:23.348Z,4.20
2022-10-11T20:25:23.286Z,4.20
2022-10-11T20:30:23.232Z,4.40
2022-10-11T20:35:23.208Z,4.20
2022-10-11T20:40:23.130Z,4.30
2022-10-11T20:45:23.073Z,4.30
2022-10-11T20:50:23.306Z,4.10
2022-10-11T20:55:22.982Z,4.00
2022-10-11T21:00:22.910Z,3.80
2022-10-11T21:05:22.860Z,4.30
2022-10-11T21:10:22.805Z,4.50
2022-10-11T21:15:22.770Z,3.90
2022-10-11T21:20:22.699Z,3.80
2022-10-11T21:25:22.647Z,3.70
2022-10-11T21:30:22.660Z,4.00
2022-10-11T21:35:22.558Z,3.80
2022-10-11T21:40:22.490Z,3.90
2022-10-11T21:45:22.436Z,3.60
2022-10-11T21:50:22.380Z,4.20
2022-10-11T21:55:22.345Z,4.20
2022-10-11T22:00:22.280Z,4.00
2022-10-11T22:05:22.205Z,3.80
2022-10-11T22:10:22.164Z,3.70
2022-10-11T22:15:22.145Z,3.80
2022-10-11T22:20:22.052Z,3.70
2022-10-11T22:25:22.005Z,3.50
2022-10-11T22:30:21.960Z,3.50
2022-10-11T22:35:21.916Z,3.10
2022-10-11T22:40:21.851Z,3.10
2022-10-11T22:45:21.794Z,3.20
2022-10-11T22:50:21.724Z,3.10
2022-10-11T22:55:21.704Z,2.90
2022-10-11T23:00:21.645Z,3.10
2022-10-11T23:05:21.567Z,4.10
2022-10-11T23:10:21.521Z,3.40
2022-10-11T23:15:21.497Z,3.40
2022-10-11T23:20:21.405Z,3.50
2022-10-11T23:25:21.366Z,3.10
